Time;durP1;ratioP1;P1;durP2;ratioP2;P2;SDS_P1;SDS_P2;PMS_P1;PMS_P2;Temp;Humidity;BMP_temperature;BMP_pressure;BME280_temperature;BME280_humidity;BME280_pressure;Samples;Min_cycle;Max_cycle;Signal;HPM_P1;HPM_P2
2022/07/03 00:02:55;;;;;;;27.20;22.90;;;;;;;14.57;95.84;99662.47;4417548;78;21025;-84
2022/07/03 00:08:58;;;;;;;20.62;17.37;;;;;;;14.58;96.25;99646.92;4426479;79;21001;-85
2022/07/03 00:14:59;;;;;;;24.43;18.95;;;;;;;14.60;96.67;99651.47;4414538;79;21284;-83
2022/07/03 00:21:13;;;;;;;21.73;18.80;;;;;;;14.71;96.93;99646.01;4428318;79;21008;-83
2022/07/03 00:27:17;;;;;;;21.42;17.55;;;;;;;14.76;97.34;99639.55;4417448;79;20973;-83
2022/07/03 00:33:29;;;;;;;21.30;17.48;;;;;;;14.82;97.53;99636.63;4410649;79;21018;-82
2022/07/03 00:39:30;;;;;;;20.05;17.73;;;;;;;14.88;97.91;99630.13;4424776;79;21048;-83
2022/07/03 00:45:36;;;;;;;20.88;17.98;;;;;;;14.89;97.84;99622.09;4422149;79;21044;-84
2022/07/03 00:51:40;;;;;;;22.77;18.07;;;;;;;14.92;98.37;99618.55;4421808;79;21040;-83
2022/07/03 00:57:51;;;;;;;22.45;18.37;;;;;;;15.00;98.83;99609.12;4420710;79;21025;-83
2022/07/03 01:04:19;;;;;;;23.92;19.00;;;;;;;15.08;99.23;99596.33;4417807;79;21027;-83
2022/07/03 01:10:57;;;;;;;21.80;18.25;;;;;;;15.17;99.60;99591.25;4419452;79;21125;-85
2022/07/03 01:17:01;;;;;;;;;;;;;;;15.25;99.93;99590.06;4429302;79;21707;-84
2022/07/03 01:23:20;;;;;;;21.00;17.55;;;;;;;15.36;100.00;99590.10;4435670;79;20115;-83
2022/07/03 01:29:28;;;;;;;19.55;16.65;;;;;;;15.43;100.00;99588.74;4423051;78;21000;-83
2022/07/03 01:35:37;;;;;;;21.93;17.98;;;;;;;15.47;100.00;99580.66;4419871;78;21899;-83
2022/07/03 01:48:49;;;;;;;27.87;18.75;;;;;;;15.59;100.00;99577.54;4410249;79;21060;-82
2022/07/03 01:55:02;;;;;;;33.73;21.07;;;;;;;15.62;100.00;99573.19;4410136;79;21489;-83
2022/07/03 02:01:48;;;;;;;21.20;16.97;;;;;;;15.63;100.00;99565.09;4424193;78;21084;-85
2022/07/03 02:08:36;;;;;;;21.15;17.07;;;;;;;15.65;100.00;99569.64;4410908;79;20989;-83
2022/07/03 02:14:39;;;;;;;22.30;16.57;;;;;;;15.69;100.00;99571.21;4435563;79;20993;-83
2022/07/03 02:20:49;;;;;;;24.02;17.23;;;;;;;15.73;100.00;99562.14;4431780;78;21481;-83
2022/07/03 02:27:10;;;;;;;18.98;15.58;;;;;;;15.77;100.00;99565.09;4424499;78;21048;-82
2022/07/03 02:33:14;;;;;;;16.17;13.30;;;;;;;15.78;100.00;99556.23;4424995;79;20988;-83
2022/07/03 02:39:34;;;;;;;14.30;12.80;;;;;;;15.79;100.00;99557.80;4395596;79;21039;-83
2022/07/03 02:45:50;;;;;;;16.77;12.58;;;;;;;15.81;100.00;99557.61;4439834;79;21021;-84
2022/07/03 02:52:15;;;;;;;14.07;12.57;;;;;;;15.85;100.00;99556.23;4426290;79;21024;-84
2022/07/03 02:58:54;;;;;;;13.75;11.90;;;;;;;15.88;100.00;99554.06;4432753;79;21603;-83
2022/07/03 03:05:35;;;;;;;15.40;12.55;;;;;;;15.89;100.00;99550.90;4424392;79;21009;-84
2022/07/03 03:11:45;;;;;;;15.60;12.47;;;;;;;15.92;100.00;99549.31;4434819;79;21067;-84
2022/07/03 03:17:51;;;;;;;13.05;11.33;;;;;;;15.95;100.00;99536.89;4431346;79;21016;-85
2022/07/03 03:24:06;;;;;;;11.88;9.95;;;;;;;15.99;100.00;99546.55;4418587;79;21481;-84
2022/07/03 03:30:11;;;;;;;10.75;9.65;;;;;;;16.01;100.00;99546.92;4423364;79;21049;-85
2022/07/03 03:36:20;;;;;;;12.65;10.88;;;;;;;16.07;100.00;99554.41;4433563;79;21012;-84
2022/07/03 03:42:30;;;;;;;12.18;10.23;;;;;;;16.08;100.00;99555.20;4435751;79;21453;-85
2022/07/03 03:48:41;;;;;;;12.55;10.55;;;;;;;16.11;100.00;99554.41;4359154;79;76043;-83
2022/07/03 03:54:42;;;;;;;11.50;10.30;;;;;;;16.17;100.00;99540.38;4293368;81;21093;-85
2022/07/03 04:00:47;;;;;;;11.48;10.32;;;;;;;16.18;100.00;99535.03;4279537;82;21571;-84
2022/07/03 04:06:49;;;;;;;12.33;10.98;;;;;;;16.24;100.00;99532.09;4259234;82;21745;-85
2022/07/03 04:12:50;;;;;;;10.95;9.85;;;;;;;16.27;100.00;99536.20;4266733;82;22194;-85
2022/07/03 04:18:54;;;;;;;15.43;11.03;;;;;;;16.35;100.00;99542.51;4257388;82;21049;-88
2022/07/03 04:24:55;;;;;;;13.25;9.88;;;;;;;16.44;100.00;99551.16;4251789;82;21526;-84
2022/07/03 04:30:57;;;;;;;11.45;9.35;;;;;;;16.50;100.00;99550.38;4251514;82;21046;-83
2022/07/03 04:36:59;;;;;;;12.15;10.58;;;;;;;16.55;100.00;99547.78;4257232;83;21030;-84
2022/07/03 04:43:00;;;;;;;12.28;10.93;;;;;;;16.60;100.00;99543.23;4239249;82;21010;-84
2022/07/03 04:49:04;;;;;;;11.57;9.68;;;;;;;16.63;100.00;99536.28;4222934;83;21391;-84
2022/07/03 04:55:09;;;;;;;12.80;10.28;;;;;;;16.68;100.00;99533.69;4184682;83;21081;-85
2022/07/03 05:01:10;;;;;;;11.40;10.20;;;;;;;16.74;100.00;99530.73;4212196;83;21010;-86
2022/07/03 05:07:14;;;;;;;13.40;9.75;;;;;;;16.84;100.00;99514.06;4213962;83;21073;-84
2022/07/03 05:13:16;;;;;;;11.55;9.10;;;;;;;16.99;100.00;99501.72;4208075;83;21045;-85
2022/07/03 05:19:17;;;;;;;13.28;10.10;;;;;;;17.16;100.00;99500.80;4212148;83;21029;-83
2022/07/03 05:25:19;;;;;;;10.03;8.98;;;;;;;17.31;100.00;99501.48;4213450;83;21493;-84
2022/07/03 05:31:20;;;;;;;10.58;9.13;;;;;;;17.51;100.00;99498.37;4207652;83;21042;-83
2022/07/03 05:37:21;;;;;;;9.88;8.88;;;;;;;17.72;100.00;99496.81;4211499;83;21518;-82
2022/07/03 05:43:23;;;;;;;10.03;8.13;;;;;;;18.02;100.00;99499.67;4212337;83;21092;-86
2022/07/03 05:49:24;;;;;;;13.05;9.18;;;;;;;18.25;99.94;99502.58;4252350;82;21058;-85
2022/07/03 05:55:25;;;;;;;8.35;7.25;;;;;;;18.39;99.17;99515.50;4275526;82;21168;-86
2022/07/03 06:01:27;;;;;;;8.70;7.80;;;;;;;18.49;99.24;99511.81;4275607;82;21066;-86
2022/07/03 06:07:28;;;;;;;12.35;8.75;;;;;;;18.68;98.75;99502.86;4275922;82;21051;-83
2022/07/03 06:13:31;;;;;;;11.15;7.85;;;;;;;18.84;98.40;99503.63;4278828;82;21035;-84
2022/07/03 06:19:32;;;;;;;8.20;7.40;;;;;;;18.96;98.01;99512.17;4274929;82;21099;-85
2022/07/03 06:25:34;;;;;;;8.20;6.97;;;;;;;19.13;97.78;99508.94;4276575;82;21054;-87
2022/07/03 06:31:36;;;;;;;8.03;7.33;;;;;;;19.35;97.27;99504.66;4212203;83;21013;-84
2022/07/03 06:37:42;;;;;;;10.08;7.17;;;;;;;19.57;96.65;99500.33;4236467;84;21063;-85
2022/07/03 06:43:43;;;;;;;7.12;6.00;;;;;;;19.76;95.94;99489.87;4237263;83;20976;-85
2022/07/03 06:49:44;;;;;;;7.90;6.75;;;;;;;19.88;95.48;99488.66;4234681;83;21553;-86
2022/07/03 06:55:46;;;;;;;6.47;5.72;;;;;;;19.89;94.81;99490.21;4341623;80;21550;-84
2022/07/03 07:01:48;;;;;;;5.80;5.25;;;;;;;20.29;94.26;99478.56;4371257;80;21036;-84
2022/07/03 07:07:50;;;;;;;5.42;4.37;;;;;;;20.84;94.07;99479.95;4370320;80;21065;-85
2022/07/03 07:13:52;;;;;;;4.85;4.45;;;;;;;21.41;92.54;99476.61;4372645;80;21034;-86
2022/07/03 07:19:56;;;;;;;6.22;5.28;;;;;;;22.03;91.34;99468.45;4338378;80;20994;-86
2022/07/03 07:25:58;;;;;;;5.17;4.67;;;;;;;22.64;90.33;99462.91;4362317;80;20965;-86
2022/07/03 07:32:01;;;;;;;4.65;4.25;;;;;;;22.65;88.63;99463.06;4368188;80;21026;-84
2022/07/03 07:38:03;;;;;;;4.80;4.30;;;;;;;22.56;87.59;99460.16;4365043;80;20994;-86
2022/07/03 07:44:04;;;;;;;6.00;4.50;;;;;;;22.23;86.41;99457.32;4367577;80;21045;-84
2022/07/03 07:50:08;;;;;;;5.85;4.15;;;;;;;22.18;86.23;99446.70;4371138;80;21092;-84
2022/07/03 07:56:09;;;;;;;5.47;4.97;;;;;;;22.03;85.51;99446.94;4366174;80;21021;-84
2022/07/03 08:08:30;;;;;;;5.53;5.03;;;;;;;22.50;83.69;99444.37;4361515;80;20998;-86
2022/07/03 08:14:31;;;;;;;6.47;4.42;;;;;;;22.76;82.63;99445.98;4323021;79;50270;-85
2022/07/03 08:20:34;;;;;;;5.33;4.83;;;;;;;22.86;81.90;99448.47;4280462;81;21543;-84
2022/07/03 08:26:36;;;;;;;6.70;4.67;;;;;;;22.94;80.88;99437.23;4275131;81;21563;-84
2022/07/03 08:32:38;;;;;;;5.95;4.85;;;;;;;23.11;79.44;99441.48;4284001;81;20978;-86
2022/07/03 08:38:39;;;;;;;5.37;4.87;;;;;;;23.43;78.52;99432.05;4277439;81;21038;-86
2022/07/03 08:44:43;;;;;;;6.15;4.60;;;;;;;23.59;77.61;99431.11;4282126;81;22228;-84
2022/07/03 08:50:46;;;;;;;5.15;4.62;;;;;;;23.75;77.23;99428.16;4280406;81;20987;-86
2022/07/03 08:56:48;;;;;;;5.53;4.92;;;;;;;23.85;75.73;99422.82;4270283;81;21023;-85
2022/07/03 09:02:50;;;;;;;5.33;4.78;;;;;;;23.72;75.67;99427.67;4278911;81;21053;-84
2022/07/03 09:08:53;;;;;;;8.30;5.45;;;;;;;23.65;74.55;99420.95;4275056;81;21034;-85
2022/07/03 09:14:54;;;;;;;6.87;4.50;;;;;;;23.77;75.42;99412.52;4272506;81;21024;-86
2022/07/03 09:21:02;;;;;;;6.22;5.37;;;;;;;23.53;74.01;99415.55;4273424;81;21050;-84
2022/07/03 09:27:06;;;;;;;6.92;4.83;;;;;;;23.22;74.08;99415.99;4277515;81;21045;-86
2022/07/03 09:33:07;;;;;;;6.03;5.40;;;;;;;23.46;74.01;99417.81;4254526;81;21117;-86
2022/07/03 09:39:18;;;;;;;5.28;4.78;;;;;;;24.17;73.20;99413.45;4273266;81;21078;-84
2022/07/03 09:45:20;;;;;;;5.30;4.80;;;;;;;25.23;70.54;99396.05;4198113;83;21121;-85
2022/07/03 09:51:26;;;;;;;5.72;5.10;;;;;;;25.23;70.54;99396.05;4168513;84;21022;-85
2022/07/03 09:57:29;;;;;;;5.37;4.60;;;;;;;25.66;70.09;99392.25;4201754;83;21092;-84
2022/07/03 10:03:30;;;;;;;5.55;4.78;;;;;;;25.98;69.47;99386.02;4214959;83;21034;-85
2022/07/03 10:09:34;;;;;;;6.50;4.60;;;;;;;26.35;68.17;99390.94;4170364;84;21137;-87
2022/07/03 10:15:37;;;;;;;5.58;4.70;;;;;;;26.59;67.16;99384.19;4168863;84;21033;-86
2022/07/03 10:21:40;;;;;;;5.45;4.00;;;;;;;26.66;65.73;99382.45;4168741;84;21626;-84
2022/07/03 10:27:46;;;;;;;6.35;4.03;;;;;;;27.02;65.39;99372.45;4198491;83;21616;-86
2022/07/03 10:33:48;;;;;;;5.12;4.45;;;;;;;27.43;64.32;99372.21;4202085;82;21769;-85
2022/07/03 10:46:27;;;;;;;4.15;3.83;;;;;;;28.02;61.25;99357.69;4162165;84;21046;-84
2022/07/03 10:52:28;;;;;;;5.50;4.30;;;;;;;28.14;60.38;99350.98;4164028;84;21131;-85
2022/07/03 10:58:29;;;;;;;4.35;3.95;;;;;;;28.02;59.24;99334.52;4161523;84;21017;-85
2022/07/03 11:05:00;;;;;;;4.53;4.12;;;;;;;28.51;59.34;99330.41;4173527;84;22260;-84
2022/07/03 11:17:22;;;;;;;5.12;4.30;;;;;;;28.96;56.72;99314.30;4173537;84;21023;-85
2022/07/03 11:23:31;;;;;;;5.12;4.42;;;;;;;29.25;56.22;99306.38;4208367;83;21033;-86
2022/07/03 11:29:37;;;;;;;4.72;4.00;;;;;;;29.06;52.09;99302.29;4169998;84;21054;-86
2022/07/03 11:35:54;;;;;;;7.00;4.30;;;;;;;29.35;52.85;99307.02;4162732;84;22100;-86
2022/07/03 11:41:55;;;;;;;4.55;4.05;;;;;;;29.57;52.40;99307.27;4179124;84;21069;-86
2022/07/03 11:48:01;;;;;;;4.50;4.08;;;;;;;29.79;52.31;99298.42;4202267;82;21019;-87
2022/07/03 11:54:03;;;;;;;3.90;3.60;;;;;;;30.05;52.54;99302.66;4167722;84;21071;-85
2022/07/03 12:00:06;;;;;;;5.12;4.28;;;;;;;30.14;51.82;99303.88;4172530;84;21040;-84
2022/07/03 12:06:13;;;;;;;4.50;4.00;;;;;;;30.04;48.30;99294.03;4169158;84;21620;-85
2022/07/03 12:12:14;;;;;;;5.50;4.58;;;;;;;29.70;51.03;99283.08;4211525;83;21020;-86
2022/07/03 12:18:16;;;;;;;4.65;4.00;;;;;;;29.46;50.50;99281.11;4223864;83;21070;-87
2022/07/03 12:24:18;;;;;;;5.12;4.72;;;;;;;29.10;50.03;99273.24;4167876;84;21103;-86
2022/07/03 12:30:27;;;;;;;4.85;4.45;;;;;;;28.61;49.69;99266.29;4169696;83;20967;-86
2022/07/03 12:36:29;;;;;;;6.55;4.83;;;;;;;28.58;50.26;99260.23;4167239;84;21125;-85
2022/07/03 12:42:30;;;;;;;5.50;5.00;;;;;;;28.45;49.97;99254.11;4168413;84;21115;-86
2022/07/03 12:48:32;;;;;;;6.10;5.50;;;;;;;28.23;49.98;99248.92;4169520;84;21025;-85
2022/07/03 12:54:35;;;;;;;5.72;5.12;;;;;;;28.02;49.69;99245.13;4244747;81;78884;-86
2022/07/03 13:00:43;;;;;;;5.33;4.45;;;;;;;27.60;48.63;99246.16;4285217;82;20962;-85
2022/07/03 13:06:48;;;;;;;5.53;4.90;;;;;;;27.61;49.42;99242.09;4286888;82;21041;-85
2022/07/03 13:12:52;;;;;;;8.18;5.00;;;;;;;27.48;49.33;99232.39;4284171;81;21081;-85
2022/07/03 13:19:01;;;;;;;5.20;4.70;;;;;;;27.47;49.52;99225.19;4285592;82;20974;-85
2022/07/03 13:25:02;;;;;;;5.15;4.65;;;;;;;27.47;49.54;99215.35;4258410;81;21041;-85
2022/07/03 13:31:04;;;;;;;5.83;5.33;;;;;;;27.31;49.28;99218.66;4317580;81;22154;-85
2022/07/03 13:37:05;;;;;;;5.33;4.83;;;;;;;27.18;49.35;99216.08;4323981;81;21014;-86
2022/07/03 13:43:07;;;;;;;5.25;4.75;;;;;;;27.13;49.68;99208.94;4320511;81;21100;-85
2022/07/03 13:49:08;;;;;;;5.87;5.10;;;;;;;27.10;49.70;99202.88;4416336;79;21105;-85
2022/07/03 13:55:10;;;;;;;5.15;4.75;;;;;;;27.12;49.84;99198.97;4410524;79;21006;-86
2022/07/03 14:01:11;;;;;;;8.70;5.30;;;;;;;27.08;49.48;99201.95;4405633;79;20989;-85
2022/07/03 14:07:12;;;;;;;6.45;5.03;;;;;;;26.98;50.13;99195.49;4396985;79;21830;-85
2022/07/03 14:13:14;;;;;;;5.17;4.70;;;;;;;27.05;50.03;99197.91;4412643;79;21408;-85
2022/07/03 14:19:15;;;;;;;5.47;4.97;;;;;;;27.09;50.18;99185.23;4406431;79;21098;-84
2022/07/03 14:25:17;;;;;;;5.42;4.90;;;;;;;27.05;50.21;99186.06;4400283;79;21050;-85
2022/07/03 14:37:26;;;;;;;5.00;4.50;;;;;;;27.05;50.33;99170.61;4288261;81;20993;-82
2022/07/03 14:43:28;;;;;;;5.50;4.92;;;;;;;27.05;49.61;99162.80;4326466;80;21068;-85
2022/07/03 14:49:29;;;;;;;5.25;4.72;;;;;;;26.97;50.03;99162.41;4436441;77;21072;-86
2022/07/03 14:55:34;;;;;;;6.10;4.60;;;;;;;26.96;50.22;99168.50;4430994;79;21055;-84
2022/07/03 15:01:45;;;;;;;5.00;4.50;;;;;;;26.96;49.98;99162.88;4405532;79;21002;-85
2022/07/03 15:08:02;;;;;;;5.40;4.60;;;;;;;27.00;50.44;99160.68;4432292;79;21067;-86
2022/07/03 15:14:05;;;;;;;5.03;4.55;;;;;;;27.03;50.37;99152.69;4432155;79;20972;-85
2022/07/03 15:20:11;;;;;;;4.95;4.50;;;;;;;27.08;50.48;99152.78;4431188;79;20949;-84
2022/07/03 15:26:13;;;;;;;6.22;4.33;;;;;;;27.05;50.52;99156.56;4431948;79;20997;-85
2022/07/03 15:32:17;;;;;;;4.40;4.00;;;;;;;27.07;50.61;99151.86;4424380;79;21671;-84
2022/07/03 15:38:24;;;;;;;5.50;4.15;;;;;;;26.92;50.39;99145.45;4426190;79;21553;-84
2022/07/03 15:44:43;;;;;;;6.45;4.30;;;;;;;26.85;50.35;99143.00;4431254;79;21032;-84
2022/07/03 15:50:59;;;;;;;5.08;4.00;;;;;;;26.90;50.12;99134.70;4426599;79;21043;-84
2022/07/03 15:57:03;;;;;;;4.67;4.28;;;;;;;26.83;50.45;99142.70;4408526;79;21001;-84
2022/07/03 16:03:22;;;;;;;5.08;4.62;;;;;;;26.77;50.61;99134.80;4418951;79;21057;-84
2022/07/03 16:09:24;;;;;;;5.00;4.30;;;;;;;26.60;51.11;99121.81;4399117;79;21519;-83
2022/07/03 16:15:32;;;;;;;6.65;4.83;;;;;;;26.49;51.52;99128.60;4417883;79;20987;-84
2022/07/03 16:21:36;;;;;;;5.35;4.83;;;;;;;26.37;51.92;99128.84;4427506;79;21033;-84
2022/07/03 16:27:37;;;;;;;4.50;4.10;;;;;;;26.34;51.92;99123.58;4423440;79;21041;-84
2022/07/03 16:33:47;;;;;;;5.13;4.73;;;;;;;26.36;51.95;99118.23;4292849;78;10000289;-84
2022/07/03 16:40:10;;;;;;;5.12;4.67;;;;;;;26.30;52.28;99118.75;4396903;79;21020;-83
2022/07/03 16:46:26;;;;;;;5.30;4.80;;;;;;;26.25;52.64;99113.03;4418589;79;21052;-84
2022/07/03 16:52:28;;;;;;;6.15;5.12;;;;;;;26.17;52.62;99105.58;4415663;79;21671;-84
2022/07/03 16:58:31;;;;;;;5.67;4.97;;;;;;;26.10;52.59;99110.16;4429031;79;20954;-83
2022/07/03 17:04:33;;;;;;;4.95;4.45;;;;;;;26.07;52.36;99106.28;4449230;80;20969;-84
2022/07/03 17:10:35;;;;;;;7.20;4.95;;;;;;;25.98;52.47;99109.09;4440419;79;21654;-84
2022/07/03 17:16:44;;;;;;;8.40;5.33;;;;;;;25.94;52.56;99107.09;4419288;80;20976;-83
2022/07/03 17:22:48;;;;;;;6.00;5.35;;;;;;;25.92;52.51;99106.78;4292970;81;20950;-84
2022/07/03 17:29:04;;;;;;;5.50;5.00;;;;;;;25.88;52.39;99097.78;4269493;83;20998;-83
2022/07/03 17:35:19;;;;;;;7.90;5.43;;;;;;;25.63;53.14;99072.20;4342950;82;20997;-84
2022/07/03 17:41:25;;;;;;;5.70;5.20;;;;;;;25.61;53.51;99106.93;4374453;81;21089;-83
2022/07/03 17:47:28;;;;;;;5.80;5.30;;;;;;;25.48;53.39;99111.34;4287326;82;20999;-84
2022/07/03 17:53:32;;;;;;;6.87;4.97;;;;;;;25.41;53.47;99110.28;4293072;80;21006;-84
2022/07/03 17:59:33;;;;;;;5.67;5.17;;;;;;;25.22;54.02;99117.16;4237898;82;21536;-84
2022/07/03 18:05:35;;;;;;;7.72;4.97;;;;;;;25.06;54.35;99124.48;4265630;82;21073;-84
2022/07/03 18:12:01;;;;;;;5.05;4.55;;;;;;;24.93;54.37;99121.72;4276814;82;21036;-84
2022/07/03 18:18:16;;;;;;;5.37;4.22;;;;;;;24.80;54.43;99124.67;4276581;82;20994;-84
2022/07/03 18:24:20;;;;;;;6.90;4.58;;;;;;;24.64;54.54;99129.15;4309129;80;21000;-84
2022/07/03 18:30:22;;;;;;;5.33;4.28;;;;;;;24.40;54.78;99131.77;4088683;83;9999989;-85
2022/07/03 18:36:29;;;;;;;4.97;3.83;;;;;;;24.17;55.08;99135.77;4280912;83;20957;-85
2022/07/03 18:42:31;;;;;;;4.92;4.30;;;;;;;23.98;55.36;99132.16;4253181;82;21852;-84
2022/07/03 18:48:32;;;;;;;4.80;4.10;;;;;;;23.81;55.63;99144.02;4289975;81;21351;-85
2022/07/03 18:55:02;;;;;;;5.22;4.65;;;;;;;23.60;55.90;99144.23;4365910;80;21538;-84
2022/07/03 19:01:08;;;;;;;6.28;4.53;;;;;;;23.41;56.33;99145.39;4389548;79;20990;-84
2022/07/03 19:07:12;;;;;;;6.63;4.13;;;;;;;23.21;56.59;99159.66;4398145;79;20948;-84
2022/07/03 19:13:15;;;;;;;5.30;4.78;;;;;;;23.05;56.90;99160.49;4389385;80;20961;-85
2022/07/03 19:19:17;;;;;;;7.50;5.53;;;;;;;22.86;57.28;99166.56;4385743;80;21014;-84
2022/07/03 19:25:18;;;;;;;7.70;5.20;;;;;;;22.68;57.61;99173.97;4385566;80;21965;-84
2022/07/03 19:31:21;;;;;;;7.35;4.92;;;;;;;22.53;58.37;99182.67;4275753;79;9999705;-83
2022/07/03 19:37:22;;;;;;;5.92;5.28;;;;;;;22.35;58.42;99187.42;4394305;79;21534;-84
2022/07/03 19:43:24;;;;;;;8.95;5.05;;;;;;;22.14;58.94;99187.34;4383653;79;20997;-84
2022/07/03 19:49:27;;;;;;;5.87;5.30;;;;;;;21.96;59.49;99196.88;4397851;79;21049;-84
2022/07/03 19:55:28;;;;;;;6.65;5.40;;;;;;;21.83;59.95;99189.94;4401154;79;21040;-84
2022/07/03 20:01:30;;;;;;;6.60;5.70;;;;;;;21.72;60.55;99181.09;4400612;79;20989;-84
2022/07/03 20:07:31;;;;;;;8.35;5.65;;;;;;;21.54;61.13;99190.58;4395476;78;21982;-83
2022/07/03 20:13:32;;;;;;;7.35;5.47;;;;;;;21.36;62.44;99198.06;4402347;79;21004;-83
2022/07/03 20:19:34;;;;;;;7.35;5.97;;;;;;;21.28;62.63;99202.27;4394188;79;20997;-83
2022/07/03 20:25:36;;;;;;;6.75;4.85;;;;;;;21.08;62.93;99202.28;4402121;79;21897;-83
2022/07/03 20:32:09;;;;;;;7.22;5.35;;;;;;;20.90;63.40;99196.38;4403046;79;21024;-82
2022/07/03 20:38:13;;;;;;;7.08;5.40;;;;;;;20.72;63.88;99207.98;4391238;80;21006;-84
2022/07/03 20:44:14;;;;;;;8.45;6.12;;;;;;;20.54;64.31;99218.80;4384655;80;21968;-84
2022/07/03 20:50:15;;;;;;;7.53;6.15;;;;;;;20.41;65.09;99212.96;4393615;79;21507;-85
2022/07/03 20:56:17;;;;;;;9.58;6.10;;;;;;;20.31;65.35;99214.81;4388798;80;21565;-84
2022/07/03 21:02:19;;;;;;;7.72;5.80;;;;;;;20.26;65.82;99220.89;4325157;80;21698;-83
2022/07/03 21:08:25;;;;;;;10.18;5.95;;;;;;;20.26;66.20;99225.66;4336675;80;21996;-84
2022/07/03 21:14:30;;;;;;;7.25;5.22;;;;;;;20.26;66.63;99228.44;4351739;80;21091;-84
2022/07/03 21:20:32;;;;;;;6.53;4.92;;;;;;;20.27;66.97;99221.65;4338482;80;21036;-85
2022/07/03 21:26:34;;;;;;;8.40;5.33;;;;;;;20.21;67.32;99220.02;4326674;80;21022;-85
2022/07/03 21:32:35;;;;;;;7.42;4.83;;;;;;;20.17;67.56;99217.94;4341271;80;21029;-84
2022/07/03 21:38:43;;;;;;;9.25;5.00;;;;;;;20.12;67.84;99217.79;4330276;80;21054;-84
2022/07/03 21:44:50;;;;;;;6.33;4.78;;;;;;;20.08;68.33;99218.50;4332699;80;21111;-83
2022/07/03 21:50:58;;;;;;;;;;;;;;;20.02;68.77;99212.49;4332990;80;21056;-86
2022/07/03 21:56:59;;;;;;;5.42;4.05;;;;;;;19.93;70.19;99217.27;4302837;81;20107;-84
2022/07/03 22:03:06;;;;;;;4.35;3.85;;;;;;;19.87;69.83;99223.77;4401985;80;21372;-84
2022/07/03 22:15:42;;;;;;;5.75;3.87;;;;;;;19.68;70.56;99223.20;4321939;81;21068;-84
2022/07/03 22:21:47;;;;;;;4.37;3.67;;;;;;;19.60;71.03;99226.74;4348226;80;20981;-84
2022/07/03 22:27:54;;;;;;;5.62;3.95;;;;;;;19.46;71.52;99221.49;4361910;80;21005;-84
2022/07/03 22:34:03;;;;;;;4.63;4.13;;;;;;;19.33;72.13;99218.38;4358880;80;21557;-84
2022/07/03 22:40:07;;;;;;;6.03;4.12;;;;;;;19.18;72.65;99210.15;4315865;80;21020;-84
2022/07/03 22:46:08;;;;;;;4.90;4.00;;;;;;;19.02;73.24;99199.76;4320865;80;21093;-84
2022/07/03 22:52:10;;;;;;;4.85;4.35;;;;;;;18.82;73.96;99203.72;4345791;80;21322;-84
2022/07/03 22:58:19;;;;;;;5.35;4.25;;;;;;;18.67;74.20;99196.25;4349067;80;21085;-84
2022/07/03 23:04:20;;;;;;;7.08;4.90;;;;;;;18.47;74.67;99196.23;4330308;80;21036;-86
2022/07/03 23:10:23;;;;;;;6.92;4.70;;;;;;;18.33;75.18;99193.66;4346992;80;21032;-84
2022/07/03 23:16:25;;;;;;;6.72;5.15;;;;;;;18.17;75.73;99186.60;4353660;80;21592;-84
2022/07/03 23:22:33;;;;;;;9.10;5.70;;;;;;;18.04;76.20;99178.69;4340495;80;21021;-83
2022/07/03 23:28:34;;;;;;;6.97;5.15;;;;;;;17.99;76.67;99174.25;4333378;80;21045;-85
2022/07/03 23:34:36;;;;;;;6.35;5.15;;;;;;;17.94;77.46;99170.56;4345949;80;21742;-82
2022/07/03 23:47:04;;;;;;;7.90;5.80;;;;;;;17.77;79.16;99166.88;4521030;76;23504;-82
2022/07/03 23:53:07;;;;;;;6.12;4.47;;;;;;;17.64;78.78;99163.69;4412743;77;21610;-82
2022/07/03 23:59:09;;;;;;;5.95;5.35;;;;;;;17.67;79.53;99167.80;4425181;77;20995;-82
